Time;durP1;ratioP1;P1;durP2;ratioP2;P2;SDS_P1;SDS_P2;PMS_P1;PMS_P2;Temp;Humidity;BMP_temperature;BMP_pressure;BME280_temperature;BME280_humidity;BME280_pressure;Samples;Min_cycle;Max_cycle;Signal;HPM_P1;HPM_P2
2024/03/13 00:00:41;;;;;;;;;31.00;31.00;;;;;7.23;100.00;98968.25;6306129;20;3590040;-47
2024/03/13 00:03:10;;;;;;;;;32.33;30.00;;;;;7.43;100.00;98968.91;6306517;20;3594129;-45
2024/03/13 00:05:39;;;;;;;;;39.67;34.00;;;;;7.28;100.00;98969.81;6269938;20;3587975;-43
2024/03/13 00:08:09;;;;;;;;;43.00;34.33;;;;;7.17;100.00;98968.63;6302987;20;3599327;-44
2024/03/13 00:10:39;;;;;;;;;32.33;30.67;;;;;7.38;100.00;98970.97;6301649;20;2856698;-44
2024/03/13 00:13:08;;;;;;;;;34.67;34.67;;;;;7.30;100.00;98967.91;6303304;20;3590004;-44
2024/03/13 00:15:38;;;;;;;;;32.00;30.33;;;;;7.39;100.00;98967.34;6267485;20;2858882;-46
2024/03/13 00:18:07;;;;;;;;;32.33;31.33;;;;;7.36;100.00;98967.53;6303934;20;3584735;-44
2024/03/13 00:20:37;;;;;;;;;30.33;27.67;;;;;7.36;100.00;98962.19;6270485;20;2858844;-44
2024/03/13 00:23:06;;;;;;;;;34.67;33.67;;;;;7.27;100.00;98971.63;6306053;20;3594084;-44
2024/03/13 00:25:35;;;;;;;;;34.67;30.00;;;;;7.43;100.00;98968.91;6267983;20;2855592;-45
2024/03/13 00:28:04;;;;;;;;;35.67;32.33;;;;;7.45;100.00;98972.31;6303419;20;3611795;-47
2024/03/13 00:30:34;;;;;;;;;39.00;31.00;;;;;7.42;100.00;98970.69;6273450;20;2872471;-44
2024/03/13 00:33:04;;;;;;;;;30.00;29.67;;;;;7.43;100.00;98968.91;6309955;20;3602456;-46
2024/03/13 00:35:35;;;;;;;;;32.33;32.00;;;;;7.50;100.00;98967.53;6274945;20;2865681;-44
2024/03/13 00:38:05;;;;;;;;;30.33;30.33;;;;;7.52;100.00;98971.00;6309783;20;3590793;-46
2024/03/13 00:40:37;;;;;;;;;35.33;30.33;;;;;7.43;100.00;98967.06;6274959;20;3608780;-45
2024/03/13 00:43:05;;;;;;;;;30.50;28.50;;;;;7.53;100.00;98970.06;6306896;20;2844119;-44
2024/03/13 00:45:34;;;;;;;;;30.67;30.67;;;;;7.48;100.00;98970.31;6277102;20;3601368;-43
2024/03/13 00:48:05;;;;;;;;;36.33;31.67;;;;;7.59;100.00;98969.69;6271203;20;3619109;-46
2024/03/13 00:50:34;;;;;;;;;36.00;32.33;;;;;7.74;100.00;98961.66;6309489;20;3605557;-44
2024/03/13 00:53:03;;;;;;;;;36.00;31.00;;;;;7.57;100.00;98966.22;6275459;20;2861927;-46
2024/03/13 00:55:32;;;;;;;;;39.00;30.67;;;;;7.49;100.00;98968.50;6307259;20;3619130;-45
2024/03/13 00:58:02;;;;;;;;;33.33;29.33;;;;;7.52;100.00;98973.66;6275840;20;3596164;-49
2024/03/13 01:00:35;;;;;;;;;31.33;31.33;;;;;7.50;100.00;98970.22;6309321;20;3610785;-47
2024/03/13 01:03:05;;;;;;;;;42.33;34.67;;;;;7.50;100.00;98972.88;6275790;20;3617002;-47
2024/03/13 01:05:36;;;;;;;;;32.67;26.67;;;;;7.60;100.00;98960.69;6304760;20;2860872;-45
2024/03/13 01:08:05;;;;;;;;;34.67;32.33;;;;;7.69;100.00;98965.50;6309361;20;3585755;-44
2024/03/13 01:10:34;;;;;;;;;33.00;29.33;;;;;7.63;100.00;98963.16;6272551;20;2854603;-44
2024/03/13 01:13:05;;;;;;;;;32.33;30.67;;;;;7.65;100.00;98960.41;6307036;20;3592069;-46
2024/03/13 01:15:34;;;;;;;;;32.00;28.33;;;;;7.69;100.00;98967.31;6269355;20;2853446;-45
2024/03/13 01:18:04;;;;;;;;;34.00;33.00;;;;;7.44;100.00;98962.59;6305080;20;3579546;-44
2024/03/13 01:20:32;;;;;;;;;36.67;34.00;;;;;7.54;100.00;98969.09;6313522;20;3598419;-44
2024/03/13 01:23:02;;;;;;;;;36.67;33.67;;;;;7.63;100.00;98955.16;6285229;20;3610807;-45
2024/03/13 01:25:31;;;;;;;;;39.33;31.00;;;;;7.59;100.00;98964.34;6314198;20;3625311;-44
2024/03/13 01:28:01;;;;;;;;;36.00;32.33;;;;;7.62;100.00;98963.28;6284366;20;3610805;-44
2024/03/13 01:30:30;;;;;;;;;36.33;29.67;;;;;7.54;100.00;98966.41;6315115;20;2871251;-43
2024/03/13 01:32:59;;;;;;;;;35.33;32.00;;;;;7.61;100.00;98964.22;6318378;20;3606526;-44
2024/03/13 01:35:29;;;;;;;;;36.33;30.33;;;;;7.58;100.00;98969.75;6282092;20;3599245;-43
2024/03/13 01:37:58;;;;;;;;;41.00;33.67;;;;;7.63;100.00;98962.31;6320004;20;3602402;-43
2024/03/13 01:55:13;;;;;;;;;30.67;29.67;;;;;7.83;100.00;98958.44;6313365;20;3585719;-44
2024/03/13 01:57:56;;;;;;;;;37.33;29.67;;;;;7.84;100.00;98958.31;6279514;20;3615895;-44
2024/03/13 02:03:21;;;;;;;;;37.00;26.67;;;;;7.86;100.00;98958.25;6281867;20;3610802;-49
2024/03/13 02:05:51;;;;;;;;;27.67;27.00;;;;;8.01;100.00;98959.97;6316779;20;3581562;-45
2024/03/13 02:08:20;;;;;;;;;34.00;29.00;;;;;8.21;100.00;98960.50;6316703;20;3600345;-47
2024/03/13 02:10:49;;;;;;;;;34.00;31.33;;;;;8.21;100.00;98960.50;6281369;20;2866944;-45
2024/03/13 02:13:18;;;;;;;;;33.67;33.00;;;;;8.21;100.00;98960.50;6317179;20;3595082;-43
2024/03/13 02:15:47;;;;;;;;;33.00;27.00;;;;;8.21;100.00;98956.00;6281563;20;2842984;-45
2024/03/13 02:18:24;;;;;;;;;33.33;30.33;;;;;8.35;100.00;98960.50;6284002;20;3602335;-44
2024/03/13 02:20:53;;;;;;;;;35.67;28.33;;;;;8.33;100.00;98951.72;6311928;20;3603524;-45
2024/03/13 02:23:23;;;;;;;;;35.33;32.00;;;;;8.22;100.00;98951.53;6284707;20;2871371;-44
2024/03/13 02:25:53;;;;;;;;;33.33;30.33;;;;;8.39;100.00;98959.34;6312474;20;2864960;-45
2024/03/13 02:28:42;;;;;;;;;40.00;31.00;;;;;8.42;100.00;98956.47;6317279;20;3625292;-45
2024/03/13 02:31:11;;;;;;;;;41.67;33.33;;;;;8.31;100.00;98961.63;6282645;20;3624261;-46
2024/03/13 02:33:40;;;;;;;;;37.33;29.33;;;;;8.49;100.00;98962.31;6314981;20;3619241;-46
2024/03/13 02:36:10;;;;;;;;;29.00;25.33;;;;;8.44;100.00;98967.09;6281354;20;2848191;-45
2024/03/13 02:38:38;;;;;;;;;30.00;25.67;;;;;8.39;100.00;98967.38;6318564;20;3605476;-45
2024/03/13 02:41:07;;;;;;;;;31.00;31.00;;;;;8.43;100.00;98968.91;6284162;20;2857578;-43
2024/03/13 02:43:40;;;;;;;;;31.67;30.33;;;;;8.59;100.00;98970.59;6282376;20;2861889;-45
2024/03/13 02:46:08;;;;;;;;;35.00;27.50;;;;;8.60;100.00;98966.97;6313874;20;2854440;-44
2024/03/13 02:48:38;;;;;;;;;38.33;32.33;;;;;8.64;100.00;98974.69;6280998;20;3628548;-44
2024/03/13 02:51:09;;;;;;;;;28.00;26.00;;;;;8.71;100.00;98970.63;6314888;20;3583624;-45
2024/03/13 02:53:38;;;;;;;;;31.00;29.50;;;;;8.57;100.00;98974.22;6279978;20;2851450;-49
2024/03/13 02:56:10;;;;;;;;;31.00;29.00;;;;;8.64;100.00;98972.03;6282936;20;2858644;-44
2024/03/13 02:58:39;;;;;;;;;32.50;26.00;;;;;8.59;100.00;98975.97;6282257;20;2854540;-43
2024/03/13 03:01:09;;;;;;;;;35.00;28.00;;;;;8.61;100.00;98979.38;6281603;20;3596151;-44
2024/03/13 03:03:39;;;;;;;;;34.00;30.33;;;;;8.62;100.00;98975.75;6314068;20;3608577;-44
2024/03/13 03:06:08;;;;;;;;;27.50;26.00;;;;;8.65;100.00;98978.22;6281494;20;2832575;-45
2024/03/13 03:08:40;;;;;;;;;30.00;26.50;;;;;8.55;100.00;98981.47;6284060;20;2847155;-45
2024/03/13 03:11:12;;;;;;;;;34.00;27.00;;;;;8.66;100.00;98978.13;6281917;20;2859665;-44
2024/03/13 03:13:42;;;;;;;;;37.33;31.00;;;;;8.76;100.00;98975.69;6314575;20;3607588;-47
2024/03/13 03:16:11;;;;;;;;;33.33;29.67;;;;;8.64;100.00;98984.56;6310027;20;2864934;-45
2024/03/13 03:18:43;;;;;;;;;34.33;30.00;;;;;8.76;100.00;98984.59;6312727;20;2851555;-44
2024/03/13 03:21:13;;;;;;;;;37.33;32.67;;;;;8.56;100.00;98983.22;6316452;20;3611807;-46
2024/03/13 03:23:41;;;;;;;;;30.50;28.50;;;;;8.57;100.00;98978.72;6281820;20;2856658;-45
2024/03/13 03:26:20;;;;;;;;;33.67;30.00;;;;;8.61;100.00;98984.72;6280721;20;2856668;-46
2024/03/13 03:28:49;;;;;;;;;30.00;28.33;;;;;8.55;100.00;98986.84;6312502;20;2854446;-44
2024/03/13 03:31:18;;;;;;;;;31.67;25.67;;;;;8.65;100.00;98980.91;6315395;20;3586834;-44
2024/03/13 03:33:47;;;;;;;;;37.00;30.67;;;;;8.70;100.00;98986.81;6279035;20;2876437;-44
2024/03/13 03:36:16;;;;;;;;;27.00;24.00;;;;;8.69;100.00;98980.63;6311831;20;2839874;-44
2024/03/13 03:38:46;;;;;;;;;37.00;31.67;;;;;8.67;100.00;98984.34;6282699;20;2864045;-44
2024/03/13 03:41:15;;;;;;;;;33.00;28.00;;;;;8.56;100.00;98983.22;6314608;20;2841937;-51
2024/03/13 03:43:44;;;;;;;;;25.00;23.00;;;;;8.67;100.00;98981.66;6282170;20;2844066;-46
2024/03/13 03:46:14;;;;;;;;;31.67;28.00;;;;;8.58;100.00;98985.78;6280827;20;2857640;-51
2024/03/13 03:48:44;;;;;;;;;36.33;30.33;;;;;8.70;100.00;98994.84;6311325;20;3615914;-51
2024/03/13 03:51:16;;;;;;;;;27.67;25.00;;;;;8.60;100.00;98988.38;6314457;20;3579461;-49
2024/03/13 03:53:45;;;;;;;;;26.50;25.50;;;;;8.66;100.00;98990.63;6280398;20;2842046;-48
2024/03/13 03:56:14;;;;;;;;;33.50;28.00;;;;;8.69;100.00;98999.34;6279842;20;2856691;-49
2024/03/13 03:58:43;;;;;;;;;32.50;29.00;;;;;8.68;100.00;98999.44;6282587;20;2857637;-46
2024/03/13 04:01:12;;;;;;;;;29.00;27.00;;;;;8.60;100.00;99004.41;6280027;20;2848230;-45
2024/03/13 04:03:42;;;;;;;;;33.33;24.00;;;;;8.62;100.00;98994.47;6281120;20;2873263;-50
2024/03/13 04:06:11;;;;;;;;;29.33;27.00;;;;;8.71;100.00;98997.41;6311690;20;3592062;-49
2024/03/13 04:08:39;;;;;;;;;29.50;26.00;;;;;8.72;100.00;98990.25;6282802;20;2848202;-46
2024/03/13 04:11:08;;;;;;;;;28.50;28.00;;;;;8.69;100.00;98994.00;6281296;20;2854484;-45
2024/03/13 04:13:40;;;;;;;;;30.00;28.33;;;;;8.64;100.00;98985.41;6283972;20;3600358;-46
2024/03/13 04:16:13;;;;;;;;;30.00;26.50;;;;;8.68;100.00;98994.06;6278474;20;2853427;-48
2024/03/13 04:18:43;;;;;;;;;46.00;36.00;;;;;8.63;100.00;98993.50;6282998;20;2852383;-47
2024/03/13 04:21:13;;;;;;;;;37.33;32.33;;;;;8.55;100.00;98992.19;6281458;20;3606557;-46
2024/03/13 04:23:45;;;;;;;;;35.00;33.00;;;;;8.61;100.00;99006.13;6311842;20;3619463;-44
2024/03/13 04:26:15;;;;;;;;;36.67;32.33;;;;;8.53;100.00;99001.25;6281924;20;3609642;-43
2024/03/13 04:28:44;;;;;;;;;35.00;31.67;;;;;8.61;100.00;99000.78;6280192;20;3603413;-45
2024/03/13 04:31:13;;;;;;;;;31.00;27.67;;;;;8.64;100.00;99006.81;6315256;20;3595110;-46
2024/03/13 04:33:43;;;;;;;;;29.67;28.67;;;;;8.67;100.00;99011.09;6278718;20;2848386;-44
2024/03/13 04:36:13;;;;;;;;;37.33;33.00;;;;;8.70;100.00;99006.41;6314478;20;3587841;-43
2024/03/13 04:38:42;;;;;;;;;39.50;35.50;;;;;8.60;100.00;99010.63;6278941;20;2851456;-44
2024/03/13 04:41:12;;;;;;;;;34.33;27.67;;;;;8.66;100.00;99012.03;6281739;20;2856753;-44
2024/03/13 04:43:40;;;;;;;;;34.67;31.00;;;;;8.60;100.00;99010.63;6316560;20;3604543;-45
2024/03/13 04:46:16;;;;;;;;;34.33;31.33;;;;;8.83;100.00;99019.00;6281457;20;3612827;-45
2024/03/13 04:48:45;;;;;;;;;32.33;30.67;;;;;8.73;100.00;99018.72;6314086;20;3602354;-46
2024/03/13 04:51:15;;;;;;;;;31.33;25.67;;;;;8.57;100.00;99022.38;6279857;20;2853391;-46
2024/03/13 04:53:43;;;;;;;;;25.67;23.33;;;;;8.70;100.00;99017.09;6315721;20;3567095;-44
2024/03/13 04:56:12;;;;;;;;;33.33;29.00;;;;;8.48;100.00;99028.34;6311778;20;3597194;-45
2024/03/13 04:58:44;;;;;;;;;30.67;29.00;;;;;8.74;100.00;99028.47;6280085;20;2853528;-45
2024/03/13 05:01:17;;;;;;;;;32.00;28.67;;;;;8.81;100.00;99024.44;6313392;20;3594113;-44
2024/03/13 05:03:46;;;;;;;;;36.67;32.33;;;;;8.78;100.00;99030.00;6280807;20;2858735;-44
2024/03/13 05:06:15;;;;;;;;;33.00;26.33;;;;;8.71;100.00;99024.16;6313590;20;3596084;-45
2024/03/13 05:08:45;;;;;;;;;31.33;29.33;;;;;8.84;100.00;99031.41;6280285;20;2858685;-47
2024/03/13 05:11:14;;;;;;;;;36.67;34.00;;;;;8.84;100.00;99040.28;6314561;20;3584041;-43
2024/03/13 05:13:48;;;;;;;;;38.00;28.67;;;;;8.87;100.00;99034.75;6279329;20;3625299;-44
2024/03/13 05:16:18;;;;;;;;;24.00;24.00;;;;;8.83;100.00;99035.06;6313475;20;2835745;-47
2024/03/13 05:18:48;;;;;;;;;30.50;29.00;;;;;8.83;100.00;99038.59;6284855;20;2856536;-44
2024/03/13 05:21:18;;;;;;;;;27.50;25.50;;;;;8.66;100.00;99045.03;6284173;20;2844169;-44
2024/03/13 05:23:49;;;;;;;;;32.33;29.33;;;;;8.78;100.00;99040.69;6283980;20;2859858;-44
2024/03/13 05:26:18;;;;;;;;;31.67;26.67;;;;;8.83;100.00;99049.28;6316567;20;2847142;-47
2024/03/13 05:28:47;;;;;;;;;29.00;25.00;;;;;8.81;100.00;99047.69;6316833;20;2845092;-44
2024/03/13 05:31:16;;;;;;;;;25.50;23.50;;;;;8.81;100.00;99056.56;6286571;20;2843050;-43
2024/03/13 05:33:45;;;;;;;;;24.50;24.50;;;;;8.91;100.00;99052.34;6286400;20;2848188;-45
2024/03/13 05:36:13;;;;;;;;;27.50;25.00;;;;;8.94;100.00;99053.94;6284958;20;2860806;-43
2024/03/13 05:38:42;;;;;;;;;26.00;20.50;;;;;8.89;100.00;99059.59;6284782;20;2840335;-43
2024/03/13 05:41:11;;;;;;;;;24.00;24.00;;;;;8.75;100.00;99057.81;6285183;20;2837868;-44
2024/03/13 05:43:42;;;;;;;;;25.33;24.67;;;;;8.84;100.00;99056.34;6283981;20;2846104;-43
2024/03/13 05:46:11;;;;;;;;;29.67;24.33;;;;;8.79;100.00;99063.81;6315941;20;2851390;-43
2024/03/13 05:48:40;;;;;;;;;28.50;26.00;;;;;9.10;100.00;99061.84;6315164;20;2854471;-44
2024/03/13 05:51:09;;;;;;;;;24.00;21.00;;;;;9.04;100.00;99055.06;6284261;20;2848713;-43
2024/03/13 05:53:39;;;;;;;;;30.00;25.00;;;;;9.17;100.00;99057.81;6283766;20;2852587;-44
2024/03/13 05:56:07;;;;;;;;;26.67;25.00;;;;;9.21;100.00;99059.31;6319464;20;3578389;-44
2024/03/13 05:58:37;;;;;;;;;25.33;23.33;;;;;9.07;100.00;99062.91;6282596;20;2848271;-45
2024/03/13 06:01:05;;;;;;;;;23.00;20.50;;;;;9.31;100.00;99064.94;6313237;20;2496142;-44
2024/03/13 06:03:36;;;;;;;;;19.00;17.00;;;;;9.50;100.00;99059.19;6284553;20;2837831;-43
2024/03/13 06:06:04;;;;;;;;;21.00;20.00;;;;;9.32;100.00;99067.50;6281329;20;2500313;-44
2024/03/13 06:08:33;;;;;;;;;18.50;17.50;;;;;9.51;100.00;99064.47;6286217;20;2835761;-45
2024/03/13 06:11:05;;;;;;;;;20.50;17.50;;;;;9.58;100.00;99063.06;6284752;20;2842000;-45
2024/03/13 06:13:34;;;;;;;;;20.33;18.67;;;;;9.76;100.00;99081.56;6285405;20;3567998;-45
2024/03/13 06:16:02;;;;;;;;;17.00;15.50;;;;;9.93;100.00;99070.53;6282484;20;2500319;-45
2024/03/13 06:18:31;;;;;;;;;21.50;19.50;;;;;10.01;100.00;99078.91;6285163;20;2825373;-46
2024/03/13 06:21:00;;;;;;;;;22.00;21.00;;;;;10.44;100.00;99078.63;6284440;20;2831735;-46
2024/03/13 06:23:27;;;;;;;;;25.50;20.50;;;;;10.81;97.71;99080.50;6282719;20;2496181;-47
2024/03/13 06:25:59;;;;;;;;;20.50;20.50;;;;;10.49;98.52;99076.47;6283238;20;2844422;-44
2024/03/13 06:31:17;;;;;;;;;15.00;15.00;;;;;11.25;92.86;99081.78;6314584;20;3538872;-45
2024/03/13 06:33:46;;;;;;;;;21.50;21.00;;;;;11.60;90.89;99095.25;6282075;20;2848190;-44
2024/03/13 06:36:15;;;;;;;;;22.50;20.00;;;;;11.76;89.73;99084.19;6283020;20;2500328;-45
2024/03/13 06:38:44;;;;;;;;;19.00;19.00;;;;;11.23;91.53;99089.94;6284810;20;2833669;-45
2024/03/13 06:41:14;;;;;;;;;21.00;18.00;;;;;10.98;92.50;99093.59;6284663;20;2844158;-45
2024/03/13 06:43:42;;;;;;;;;20.00;18.00;;;;;11.09;91.01;99092.78;6284043;20;2832607;-46
2024/03/13 06:46:11;;;;;;;;;26.00;20.50;;;;;10.82;93.60;99103.69;6284153;20;2846212;-46
2024/03/13 06:48:41;;;;;;;;;13.40;11.00;;;;;10.70;95.75;99102.75;6307896;20;2788826;-46
2024/03/13 06:51:13;;;;;;;;;19.50;19.00;;;;;10.70;97.08;99111.66;6286433;20;2834679;-46
2024/03/13 06:53:41;;;;;;;;;15.67;15.33;;;;;10.69;98.28;99118.00;6283647;20;3536699;-45
2024/03/13 06:56:09;;;;;;;;;14.00;13.00;;;;;10.75;96.31;99114.88;6285411;20;2673246;-45
2024/03/13 06:58:38;;;;;;;;;19.50;17.50;;;;;10.43;98.05;99124.38;6284374;20;2844162;-47
2024/03/13 07:01:15;;;;;;;;;23.50;18.00;;;;;10.55;99.35;99118.13;6280215;20;2839881;-44
2024/03/13 07:03:44;;;;;;;;;20.50;19.00;;;;;10.64;98.56;99128.22;6283342;20;2841986;-45
2024/03/13 07:06:14;;;;;;;;;19.50;19.50;;;;;10.55;99.11;99126.16;6283212;20;2834728;-44
2024/03/13 07:08:42;;;;;;;;;22.50;21.00;;;;;10.57;98.10;99129.63;6282827;20;2500330;-46
2024/03/13 07:11:13;;;;;;;;;17.00;15.50;;;;;10.50;96.26;99129.16;6285310;20;2814888;-48
2024/03/13 07:13:41;;;;;;;;;14.00;14.00;;;;;10.48;94.87;99135.66;6289314;20;2791973;-45
2024/03/13 07:16:08;;;;;;;;;19.00;16.00;;;;;10.77;93.09;99133.59;6285845;20;2825304;-45
2024/03/13 07:18:36;;;;;;;;;16.00;16.00;;;;;10.66;93.82;99142.38;6282488;20;2824236;-44
2024/03/13 07:21:05;;;;;;;;;17.00;15.33;;;;;10.95;91.70;99144.81;6282014;20;3535702;-45
2024/03/13 07:23:33;;;;;;;;;15.50;15.00;;;;;11.30;89.93;99141.41;6314824;20;2498233;-45
2024/03/13 07:26:04;;;;;;;;;15.00;14.00;;;;;11.39;90.00;99146.94;6282180;20;3536722;-45
2024/03/13 07:28:33;;;;;;;;;17.00;17.00;;;;;11.32;89.18;99150.19;6282697;20;2833615;-45
2024/03/13 07:31:01;;;;;;;;;16.00;16.00;;;;;11.18;88.67;99152.06;6311648;20;2491957;-44
2024/03/13 07:33:30;;;;;;;;;20.00;16.50;;;;;11.68;85.90;99152.00;6281317;20;2496127;-45
2024/03/13 07:35:58;;;;;;;;;13.00;10.50;;;;;11.48;85.82;99150.81;6279849;20;2791976;-47
2024/03/13 07:38:26;;;;;;;;;13.50;13.50;;;;;11.54;85.46;99155.72;6281494;20;2818031;-45
2024/03/13 07:40:54;;;;;;;;;17.00;15.00;;;;;11.51;85.14;99155.97;6281014;20;2500483;-47
2024/03/13 07:43:22;;;;;;;;;16.00;15.00;;;;;11.47;84.18;99158.97;6283739;20;2821242;-47
2024/03/13 07:45:50;;;;;;;;;12.00;12.00;;;;;11.62;84.28;99156.00;6279360;20;2789917;-50
2024/03/13 07:48:19;;;;;;;;;16.33;16.33;;;;;11.58;86.17;99162.56;6310589;20;3558759;-45
2024/03/13 07:50:48;;;;;;;;;20.00;14.50;;;;;11.93;83.82;99161.81;6282239;20;2811091;-46
2024/03/13 07:53:15;;;;;;;;;15.00;15.00;;;;;11.65;83.70;99171.91;6281757;20;2797206;-45
2024/03/13 07:55:43;;;;;;;;;13.00;12.00;;;;;11.73;84.79;99165.13;6280572;20;2791037;-46
2024/03/13 07:58:12;;;;;;;;;14.33;14.33;;;;;11.73;84.79;99165.13;6278420;20;3520087;-44
2024/03/13 08:00:40;;;;;;;;;19.67;15.00;;;;;11.63;84.89;99176.53;6310635;20;3556515;-45
2024/03/13 08:03:09;;;;;;;;;15.50;15.50;;;;;11.73;83.95;99173.19;6279029;20;2494185;-45
2024/03/13 08:05:38;;;;;;;;;18.00;18.00;;;;;11.71;84.73;99167.06;6277360;20;2835716;-44
2024/03/13 08:08:06;;;;;;;;;15.67;13.00;;;;;11.49;85.24;99179.41;6281344;20;3527369;-45
2024/03/13 08:10:49;;;;;;;;;18.00;16.00;;;;;11.46;84.41;99174.25;6281813;20;2813901;-45
2024/03/13 08:13:32;;;;;;;;;18.50;17.00;;;;;11.71;83.68;99175.13;6279154;20;2830517;-47
2024/03/13 08:16:14;;;;;;;;;18.00;17.67;;;;;11.58;84.83;99173.31;6281808;20;3561755;-46
2024/03/13 08:18:57;;;;;;;;;14.00;12.33;;;;;11.77;82.78;99174.66;6276642;20;2788904;-49
2024/03/13 08:21:40;;;;;;;;;12.00;12.00;;;;;11.70;82.71;99171.56;6310011;20;3510222;-47
2024/03/13 08:24:25;;;;;;;;;14.00;14.00;;;;;11.51;85.11;99177.47;6312860;20;2804466;-46
2024/03/13 08:27:07;;;;;;;;;19.00;15.33;;;;;12.00;82.91;99173.81;6282028;20;2824251;-45
2024/03/13 08:29:50;;;;;;;;;19.00;16.00;;;;;12.03;82.10;99179.00;6311886;20;2831533;-45
2024/03/13 08:32:32;;;;;;;;;16.33;15.00;;;;;12.29;81.20;99181.50;6311712;20;3547374;-45
2024/03/13 08:35:16;;;;;;;;;15.67;14.67;;;;;12.19;81.17;99173.28;6276504;20;3540942;-45
2024/03/13 08:37:59;;;;;;;;;14.00;14.00;;;;;12.43;79.01;99177.78;6313369;20;2798246;-46
2024/03/13 08:40:40;;;;;;;;;7.50;6.50;;;;;12.34;81.90;99181.16;6282776;20;2736834;-44
2024/03/13 08:43:23;;;;;;;;;10.33;10.33;;;;;12.49;78.81;99188.06;6278108;20;3514926;-44
2024/03/13 08:46:06;;;;;;;;;16.67;13.00;;;;;12.53;77.74;99186.81;6311064;20;3535722;-45
2024/03/13 08:48:47;;;;;;;;;12.00;12.00;;;;;12.53;77.95;99186.81;6281244;20;2804452;-46
2024/03/13 08:51:30;;;;;;;;;15.00;13.00;;;;;12.67;77.11;99183.94;6282505;20;2796272;-45
2024/03/13 08:54:12;;;;;;;;;16.67;15.00;;;;;12.91;75.01;99183.81;6316335;20;3534647;-47
2024/03/13 08:56:54;;;;;;;;;13.00;11.00;;;;;12.67;76.20;99188.47;6284164;20;3514970;-44
2024/03/13 08:59:40;;;;;;;;;15.67;13.00;;;;;12.78;76.82;99191.16;6314049;20;3533818;-46
2024/03/13 09:02:24;;;;;;;;;15.00;14.00;;;;;13.18;76.80;99182.59;6316755;20;3528416;-46
2024/03/13 09:05:07;;;;;;;;;13.67;12.00;;;;;13.15;73.77;99188.25;6313872;20;3521099;-49
2024/03/13 09:07:50;;;;;;;;;13.00;12.00;;;;;13.00;74.56;99201.09;6315790;20;3513832;-43
2024/03/13 09:10:18;;;;;;;;;14.00;14.00;;;;;13.07;74.29;99193.38;6316516;20;3533609;-45
2024/03/13 09:12:46;;;;;;;;;7.00;7.00;;;;;12.88;74.14;99192.16;6286761;20;2740909;-46
2024/03/13 09:15:16;;;;;;;;;8.20;8.20;;;;;12.88;72.83;99202.94;6309458;20;2743031;-45
2024/03/13 09:17:47;;;;;;;;;8.60;7.80;;;;;13.33;72.80;99200.28;6341855;20;2741978;-45
2024/03/13 09:20:15;;;;;;;;;10.50;10.50;;;;;13.51;70.85;99203.31;6321926;20;2778691;-46
2024/03/13 09:22:43;;;;;;;;;14.50;13.00;;;;;13.33;69.52;99208.34;6289046;20;2802391;-45
2024/03/13 09:25:12;;;;;;;;;11.40;10.60;;;;;13.44;70.10;99203.94;6307465;20;2792988;-45
2024/03/13 09:27:41;;;;;;;;;10.00;10.00;;;;;13.55;70.40;99207.47;6284433;20;2782568;-44
2024/03/13 09:30:11;;;;;;;;;11.00;11.00;;;;;13.87;68.85;99216.59;6320215;20;2793025;-47
2024/03/13 09:32:41;;;;;;;;;18.00;17.00;;;;;14.27;68.01;99212.28;6286483;20;2837852;-45
2024/03/13 09:35:13;;;;;;;;;11.00;11.00;;;;;13.39;68.78;99215.94;6281861;20;3512759;-45
2024/03/13 09:37:42;;;;;;;;;28.67;26.00;;;;;13.90;68.14;99217.22;6315888;20;3601298;-45
2024/03/13 09:40:17;;;;;;;;;29.67;29.67;;;;;13.81;68.98;99226.91;6286413;20;3584621;-46
2024/03/13 09:42:46;;;;;;;;;9.67;9.00;;;;;13.52;69.76;99220.34;6283283;20;2755524;-45
2024/03/13 09:45:18;;;;;;;;;12.00;9.00;;;;;13.51;69.57;99219.50;6317871;20;2769103;-47
2024/03/13 09:47:46;;;;;;;;;11.00;11.00;;;;;13.68;68.91;99228.06;6284007;20;2778453;-46
2024/03/13 09:50:17;;;;;;;;;7.00;7.00;;;;;13.23;69.93;99220.81;6288049;20;2735753;-44
2024/03/13 09:52:53;;;;;;;;;9.86;8.14;;;;;13.26;70.83;99223.31;6327771;20;3486060;-46
2024/03/13 09:55:25;;;;;;;;;10.00;10.00;;;;;13.35;71.13;99221.72;6314447;20;2791982;-45
2024/03/13 09:57:55;;;;;;;;;8.00;8.00;;;;;13.49;69.55;99218.75;6310230;20;2750308;-43
2024/03/13 10:00:24;;;;;;;;;21.50;20.50;;;;;13.80;69.36;99222.50;6315062;20;2833661;-48
2024/03/13 10:02:57;;;;;;;;;15.00;12.00;;;;;13.73;68.06;99226.69;6279782;20;3524269;-45
2024/03/13 10:05:26;;;;;;;;;14.50;14.00;;;;;14.16;67.62;99222.25;6311034;20;2784721;-47
2024/03/13 10:07:57;;;;;;;;;9.00;9.00;;;;;14.11;66.74;99214.53;6284620;20;2755526;-50
2024/03/13 10:10:28;;;;;;;;;11.33;11.00;;;;;14.46;66.17;99208.03;6282665;20;3517053;-45
2024/03/13 10:12:59;;;;;;;;;9.00;9.00;;;;;14.38;65.26;99221.34;6311282;20;2749275;-45
2024/03/13 10:15:29;;;;;;;;;14.00;13.00;;;;;14.76;64.24;99219.91;6313218;20;2794060;-46
2024/03/13 10:18:15;;;;;;;;;13.33;12.67;;;;;14.54;65.95;99227.16;6280660;20;2784761;-45
2024/03/13 10:21:12;;;;;;;;;10.33;9.67;;;;;14.98;64.55;99217.06;6311110;20;3489941;-45
2024/03/13 10:23:48;;;;;;;;;7.00;7.00;;;;;14.94;63.55;99218.31;6359072;20;3451425;-46
2024/03/13 10:26:20;;;;;;;;;8.00;8.00;;;;;14.79;63.27;99228.59;6311952;20;2742082;-46
2024/03/13 10:28:49;;;;;;;;;15.00;13.50;;;;;14.97;62.13;99225.31;6285089;20;2812492;-45
2024/03/13 10:31:17;;;;;;;;;15.00;14.00;;;;;14.95;62.81;99225.41;6287051;20;2810713;-45
2024/03/13 10:33:46;;;;;;;;;10.00;7.00;;;;;14.55;63.09;99222.63;6281744;20;2766987;-45
2024/03/13 10:36:16;;;;;;;;;13.00;11.00;;;;;14.49;64.07;99224.81;6285122;20;3518424;-44
2024/03/13 10:38:47;;;;;;;;;10.50;10.50;;;;;14.27;63.40;99225.78;6317294;20;2791961;-47
2024/03/13 10:41:17;;;;;;;;;19.00;17.00;;;;;14.45;64.81;99217.09;6280631;20;2831583;-46
2024/03/13 10:43:47;;;;;;;;;22.67;21.00;;;;;14.68;61.99;99218.72;6282501;20;2856614;-52
2024/03/13 10:46:17;;;;;;;;;14.67;13.67;;;;;14.84;63.31;99220.09;6314522;20;3534684;-48
2024/03/13 10:48:49;;;;;;;;;9.40;8.00;;;;;15.13;62.59;99222.97;6306592;20;2759855;-52
2024/03/13 10:51:18;;;;;;;;;10.33;10.33;;;;;14.60;63.01;99215.81;6279720;20;3520066;-48
2024/03/13 10:53:48;;;;;;;;;8.60;8.60;;;;;15.05;62.84;99210.09;6339559;20;2752384;-48
2024/03/13 10:56:18;;;;;;;;;13.67;11.67;;;;;15.53;60.49;99209.47;6312120;20;3500361;-46
2024/03/13 10:58:47;;;;;;;;;22.00;20.67;;;;;15.26;61.82;99217.31;6314984;20;3574346;-45
2024/03/13 11:01:16;;;;;;;;;20.00;18.00;;;;;15.48;59.33;99217.16;6277730;20;2483733;-47
2024/03/13 11:03:45;;;;;;;;;11.00;10.00;;;;;15.69;59.92;99224.34;6286606;20;2796168;-49
2024/03/13 11:06:16;;;;;;;;;11.00;9.67;;;;;15.93;58.88;99207.72;6279386;20;2778435;-46
2024/03/13 11:08:44;;;;;;;;;25.00;25.00;;;;;15.64;59.96;99218.44;6315597;20;2656547;-48
2024/03/13 11:11:14;;;;;;;;;17.33;14.33;;;;;15.00;61.04;99216.91;6279364;20;3547157;-47
2024/03/13 11:13:54;;;;;;;;;30.00;26.00;;;;;15.22;62.35;99213.16;6280649;20;2845196;-45
2024/03/13 11:16:24;;;;;;;;;14.67;14.67;;;;;15.01;61.32;99215.91;6310224;20;3526303;-45
2024/03/13 11:18:55;;;;;;;;;19.00;19.00;;;;;15.26;63.34;99214.63;6279657;20;3571100;-46
2024/03/13 11:21:49;;;;;;;;;15.00;14.00;;;;;15.53;60.64;99212.19;6287075;20;2797283;-49
2024/03/13 11:24:25;;;;;;;;;13.00;10.00;;;;;15.21;60.95;99208.75;6284761;20;2784681;-47
2024/03/13 11:27:10;;;;;;;;;22.00;21.00;;;;;15.35;61.58;99200.28;6277884;20;2825283;-44
2024/03/13 11:29:49;;;;;;;;;26.67;26.67;;;;;15.28;59.50;99204.53;6282874;20;3581512;-46
2024/03/13 11:32:19;;;;;;;;;10.00;9.00;;;;;15.33;59.69;99208.53;6286920;20;2755576;-45
2024/03/13 11:34:49;;;;;;;;;9.50;9.50;;;;;15.45;59.66;99198.44;6283185;20;2775405;-46
2024/03/13 11:37:21;;;;;;;;;16.33;11.67;;;;;15.32;60.32;99204.13;6279949;20;3530591;-46
2024/03/13 11:39:51;;;;;;;;;13.00;13.00;;;;;14.96;60.24;99202.81;6309983;20;2796107;-45